createdAt,value
2019-05-26T00:00:43.266Z,99.99
2019-05-26T00:01:43.269Z,99.99
2019-05-26T00:02:43.267Z,99.99
2019-05-26T00:03:43.276Z,99.99
2019-05-26T00:04:43.259Z,99.99
2019-05-26T00:05:43.256Z,99.99
2019-05-26T00:06:42.994Z,99.99
2019-05-26T00:07:43.239Z,99.99
2019-05-26T00:08:43.254Z,99.99
2019-05-26T00:09:49.515Z,99.99
2019-05-26T00:10:43.232Z,99.99
2019-05-26T00:11:43.224Z,99.99
2019-05-26T00:12:43.219Z,99.99
2019-05-26T00:13:42.972Z,99.99
2019-05-26T00:14:43.212Z,99.99
2019-05-26T00:15:43.204Z,99.99
2019-05-26T00:16:42.954Z,99.99
2019-05-26T00:17:42.949Z,99.99
2019-05-26T00:18:43.202Z,99.99
2019-05-26T00:19:42.949Z,99.99
2019-05-26T00:20:46.222Z,99.99
2019-05-26T00:21:43.191Z,99.99
2019-05-26T00:22:43.175Z,99.99
2019-05-26T00:23:43.172Z,99.99
2019-05-26T00:24:42.921Z,99.99
2019-05-26T00:25:42.918Z,99.99
2019-05-26T00:26:43.179Z,99.99
2019-05-26T00:27:42.909Z,99.99
2019-05-26T00:28:42.909Z,99.99
2019-05-26T00:29:42.897Z,99.99
2019-05-26T00:30:43.782Z,99.99
2019-05-26T00:31:43.163Z,99.99
2019-05-26T00:32:42.912Z,99.99
2019-05-26T00:33:43.130Z,99.99
2019-05-26T00:34:43.133Z,99.99
2019-05-26T00:35:43.139Z,99.99
2019-05-26T00:36:43.124Z,99.99
2019-05-26T00:37:51.463Z,99.99
2019-05-26T00:38:42.869Z,99.99
2019-05-26T00:39:43.116Z,99.99
2019-05-26T00:40:43.115Z,99.99
2019-05-26T00:41:45.906Z,99.99
2019-05-26T00:42:43.098Z,99.99
2019-05-26T00:43:43.117Z,99.99
2019-05-26T00:44:43.089Z,99.99
2019-05-26T00:45:43.170Z,99.99
2019-05-26T00:46:42.840Z,99.99
2019-05-26T00:47:42.834Z,99.99
2019-05-26T00:48:43.080Z,99.99
2019-05-26T00:49:43.072Z,99.99
2019-05-26T00:50:43.072Z,99.99
2019-05-26T00:51:43.074Z,99.99
2019-05-26T00:52:45.850Z,99.99
2019-05-26T00:53:43.058Z,99.99
2019-05-26T00:54:43.102Z,99.99
2019-05-26T00:55:42.807Z,99.99
2019-05-26T00:56:43.041Z,99.99
2019-05-26T00:57:42.788Z,99.99
2019-05-26T00:58:43.039Z,99.99
2019-05-26T00:59:43.035Z,99.99
2019-05-26T01:00:43.041Z,99.99
2019-05-26T01:01:42.778Z,99.99
2019-05-26T01:02:43.027Z,99.99
2019-05-26T01:03:49.291Z,99.99
2019-05-26T01:04:42.781Z,99.99
2019-05-26T01:05:43.013Z,99.99
2019-05-26T01:06:43.008Z,99.99
2019-05-26T01:07:42.758Z,99.99
2019-05-26T01:08:42.756Z,99.99
2019-05-26T01:09:43.050Z,99.99
2019-05-26T01:10:42.987Z,99.99
2019-05-26T01:11:42.991Z,99.99
2019-05-26T01:12:42.731Z,99.99
2019-05-26T01:13:44.391Z,99.99
2019-05-26T01:14:42.732Z,99.99
2019-05-26T01:15:42.978Z,99.99
2019-05-26T01:16:42.725Z,99.99
2019-05-26T01:17:42.720Z,99.99
2019-05-26T01:18:42.720Z,99.99
2019-05-26T01:19:43.001Z,99.99
2019-05-26T01:20:42.951Z,99.99
2019-05-26T01:21:42.954Z,99.99
2019-05-26T01:22:42.703Z,99.99
2019-05-26T01:23:42.952Z,99.99
2019-05-26T01:24:47.797Z,99.99
2019-05-26T01:25:42.931Z,99.99
2019-05-26T01:26:42.933Z,99.99
2019-05-26T01:27:42.675Z,99.99
2019-05-26T01:28:42.918Z,99.99
2019-05-26T01:29:42.915Z,99.99
2019-05-26T01:30:42.915Z,99.99
2019-05-26T01:31:42.922Z,99.99
2019-05-26T01:32:42.659Z,99.99
2019-05-26T01:33:42.911Z,99.99
2019-05-26T01:34:42.907Z,99.99
2019-05-26T01:35:45.683Z,99.99
2019-05-26T01:36:42.890Z,99.99
2019-05-26T01:37:42.894Z,99.99
2019-05-26T01:38:42.882Z,99.99
2019-05-26T01:39:42.887Z,99.99
2019-05-26T01:40:42.891Z,99.99
2019-05-26T01:41:42.632Z,99.99
2019-05-26T01:42:42.863Z,99.99
2019-05-26T01:43:42.858Z,99.99
2019-05-26T01:44:42.855Z,99.99
2019-05-26T01:45:42.854Z,99.99
2019-05-26T01:46:42.849Z,99.99
2019-05-26T01:47:42.839Z,99.99
2019-05-26T01:48:42.852Z,99.99
2019-05-26T01:49:42.841Z,99.99
2019-05-26T01:50:42.585Z,99.99
2019-05-26T01:51:42.585Z,99.99
2019-05-26T01:52:42.587Z,99.99
2019-05-26T01:53:42.824Z,99.99
2019-05-26T01:54:43.526Z,99.99
2019-05-26T01:55:42.576Z,99.99
2019-05-26T01:56:45.835Z,99.99
2019-05-26T01:57:42.572Z,99.99
2019-05-26T01:58:42.797Z,99.99
2019-05-26T01:59:42.799Z,99.99
2019-05-26T02:00:42.599Z,99.99
2019-05-26T02:01:42.789Z,99.99
2019-05-26T02:02:42.788Z,99.99
2019-05-26T02:03:42.771Z,99.99
2019-05-26T02:04:42.527Z,99.99
2019-05-26T02:05:42.527Z,99.99
2019-05-26T02:06:42.768Z,99.99
2019-05-26T02:07:48.793Z,99.99
2019-05-26T02:08:42.751Z,99.99
2019-05-26T02:09:42.754Z,99.99
2019-05-26T02:10:42.537Z,99.99
2019-05-26T02:11:42.747Z,99.99
2019-05-26T02:12:42.742Z,99.99
2019-05-26T02:13:42.765Z,99.99
2019-05-26T02:14:42.480Z,99.99
2019-05-26T02:15:42.716Z,99.99
2019-05-26T02:16:42.713Z,99.99
2019-05-26T02:17:42.716Z,99.99
2019-05-26T02:18:45.496Z,99.99
2019-05-26T02:19:42.704Z,99.99
2019-05-26T02:20:42.707Z,99.99
2019-05-26T02:21:42.453Z,99.99
2019-05-26T02:22:42.442Z,99.99
2019-05-26T02:23:42.690Z,99.99
2019-05-26T02:24:42.679Z,99.99
2019-05-26T02:25:42.747Z,99.99
2019-05-26T02:26:42.425Z,99.99
2019-05-26T02:27:42.429Z,99.99
2019-05-26T02:28:43.277Z,99.99
2019-05-26T02:29:42.406Z,99.99
2019-05-26T02:30:42.663Z,99.99
2019-05-26T02:31:42.434Z,99.99
2019-05-26T02:32:42.648Z,99.99
2019-05-26T02:33:42.679Z,99.99
2019-05-26T02:34:42.651Z,99.99
2019-05-26T02:35:42.652Z,99.99
2019-05-26T02:36:42.676Z,99.99
2019-05-26T02:37:42.374Z,99.99
2019-05-26T02:39:03.702Z,99.99
2019-05-26T02:39:45.651Z,99.99
2019-05-26T02:40:44.519Z,99.99
2019-05-26T02:41:42.618Z,99.99
2019-05-26T02:42:42.364Z,99.99
2019-05-26T02:43:42.612Z,99.99
2019-05-26T02:44:42.607Z,99.99
2019-05-26T02:45:42.593Z,99.99
2019-05-26T02:46:42.625Z,99.99
2019-05-26T02:47:42.341Z,99.99
2019-05-26T02:48:42.595Z,99.99
2019-05-26T02:49:42.328Z,99.99
2019-05-26T02:50:44.979Z,99.99
2019-05-26T02:51:42.325Z,99.99
2019-05-26T02:52:42.573Z,99.99
2019-05-26T02:53:42.313Z,99.99
2019-05-26T02:54:42.553Z,99.99
2019-05-26T02:55:42.300Z,99.99
2019-05-26T02:56:42.563Z,99.99
2019-05-26T02:57:42.546Z,99.99
2019-05-26T02:58:42.289Z,99.99
2019-05-26T02:59:42.552Z,99.99
2019-05-26T03:00:42.597Z,99.99
2019-05-26T03:02:04.645Z,99.99
2019-05-26T03:02:42.529Z,99.99
2019-05-26T03:03:42.507Z,99.99
2019-05-26T03:04:42.511Z,99.99
2019-05-26T03:05:42.508Z,99.99
2019-05-26T03:06:42.323Z,99.99
2019-05-26T03:07:42.499Z,99.99
2019-05-26T03:08:42.495Z,99.99
2019-05-26T03:09:42.482Z,99.99
2019-05-26T03:10:42.491Z,99.99
2019-05-26T03:11:43.645Z,99.99
2019-05-26T03:12:42.482Z,99.99
2019-05-26T03:13:42.480Z,99.99
2019-05-26T03:14:42.465Z,99.99
2019-05-26T03:15:42.266Z,99.99
2019-05-26T03:16:42.219Z,99.99
2019-05-26T03:17:42.479Z,99.99
2019-05-26T03:18:42.201Z,99.99
2019-05-26T03:19:42.448Z,99.99
2019-05-26T03:20:42.200Z,99.99
2019-05-26T03:21:42.428Z,99.99
2019-05-26T03:22:45.522Z,99.99
2019-05-26T03:23:42.424Z,99.99
2019-05-26T03:24:42.433Z,99.99
2019-05-26T03:25:42.411Z,99.99
2019-05-26T03:26:42.166Z,99.99
2019-05-26T03:27:42.178Z,99.99
2019-05-26T03:28:42.395Z,99.99
2019-05-26T03:29:42.387Z,99.99
2019-05-26T03:30:42.428Z,99.99
2019-05-26T03:31:42.389Z,99.99
2019-05-26T03:32:42.147Z,99.99
2019-05-26T03:33:45.493Z,99.99
2019-05-26T03:34:42.388Z,99.99
2019-05-26T03:35:42.406Z,99.99
2019-05-26T03:36:42.115Z,99.99
2019-05-26T03:37:42.359Z,99.99
2019-05-26T03:38:42.119Z,99.99
2019-05-26T03:39:47.661Z,99.99
2019-05-26T03:40:42.347Z,99.99
2019-05-26T03:41:42.240Z,99.99
2019-05-26T03:42:42.109Z,99.99
2019-05-26T03:43:42.296Z,99.99
2019-05-26T03:44:42.331Z,99.99
2019-05-26T03:45:42.324Z,99.99
2019-05-26T03:46:42.318Z,99.99
2019-05-26T03:47:42.051Z,99.99
2019-05-26T03:48:42.312Z,99.99
2019-05-26T03:49:42.043Z,99.99
2019-05-26T03:50:42.292Z,99.99
2019-05-26T03:51:42.300Z,99.99
2019-05-26T03:52:42.283Z,99.99
2019-05-26T03:53:42.303Z,99.99
2019-05-26T03:54:45.326Z,99.99
2019-05-26T03:55:42.272Z,99.99
2019-05-26T03:56:42.319Z,99.99
2019-05-26T03:57:42.249Z,99.99
2019-05-26T03:58:42.009Z,99.99
2019-05-26T03:59:42.240Z,99.99
2019-05-26T04:00:42.262Z,99.99
2019-05-26T04:01:42.236Z,99.99
2019-05-26T04:02:41.980Z,99.99
2019-05-26T04:03:41.975Z,99.99
2019-05-26T04:04:41.985Z,99.99
2019-05-26T04:05:44.998Z,99.99
2019-05-26T04:06:41.961Z,99.99
2019-05-26T04:07:41.965Z,99.99
2019-05-26T04:08:42.093Z,99.99
2019-05-26T04:10:00.384Z,99.99
2019-05-26T04:10:42.195Z,99.99
2019-05-26T04:11:45.501Z,99.99
2019-05-26T04:12:42.191Z,99.99
2019-05-26T04:13:41.933Z,99.99
2019-05-26T04:14:42.234Z,99.99
2019-05-26T04:15:42.219Z,99.99
2019-05-26T04:16:45.243Z,99.99
2019-05-26T04:17:42.158Z,99.99
2019-05-26T04:18:42.220Z,99.99
2019-05-26T04:19:42.157Z,99.99
2019-05-26T04:20:45.701Z,99.99
2019-05-26T04:21:42.160Z,99.99
2019-05-26T04:22:42.138Z,99.99
2019-05-26T04:23:41.917Z,99.99
2019-05-26T04:24:42.137Z,99.99
2019-05-26T04:25:42.154Z,99.99
2019-05-26T04:26:43.555Z,99.99
2019-05-26T04:27:42.122Z,99.99
2019-05-26T04:28:41.877Z,99.99
2019-05-26T04:29:41.871Z,99.99
2019-05-26T04:30:42.123Z,99.99
2019-05-26T04:31:41.913Z,99.99
2019-05-26T04:32:42.121Z,99.99
2019-05-26T04:33:42.106Z,99.99
2019-05-26T04:34:42.119Z,99.99
2019-05-26T04:35:42.108Z,99.99
2019-05-26T04:36:42.103Z,99.99
2019-05-26T04:37:45.125Z,99.99
2019-05-26T04:38:42.134Z,99.99
2019-05-26T04:39:42.105Z,99.99
2019-05-26T04:40:42.098Z,99.99
2019-05-26T04:41:41.846Z,99.99
2019-05-26T04:42:42.087Z,99.99
2019-05-26T04:43:41.825Z,99.99
2019-05-26T04:44:42.070Z,99.99
2019-05-26T04:45:41.869Z,99.99
2019-05-26T04:46:41.814Z,99.99
2019-05-26T04:47:42.082Z,99.99
2019-05-26T04:48:45.142Z,99.99
2019-05-26T04:49:42.127Z,99.99
2019-05-26T04:50:41.805Z,99.99
2019-05-26T04:51:42.051Z,99.99
2019-05-26T04:52:42.049Z,99.99
2019-05-26T04:53:42.085Z,99.99
2019-05-26T04:54:42.035Z,99.99
2019-05-26T04:55:42.035Z,99.99
2019-05-26T04:56:42.050Z,99.99
2019-05-26T04:57:42.045Z,99.99
2019-05-26T04:58:42.030Z,99.99
2019-05-26T04:59:41.768Z,99.99
2019-05-26T05:00:42.021Z,99.99
2019-05-26T05:01:41.759Z,99.99
2019-05-26T05:02:41.999Z,99.99
2019-05-26T05:03:41.750Z,99.99
2019-05-26T05:04:41.993Z,99.99
2019-05-26T05:05:41.994Z,99.99
2019-05-26T05:06:41.751Z,99.99
2019-05-26T05:07:41.999Z,99.99
2019-05-26T05:08:41.746Z,99.99
2019-05-26T05:09:43.146Z,99.99
2019-05-26T05:10:48.089Z,99.99
2019-05-26T05:11:41.973Z,99.99
2019-05-26T05:12:41.719Z,99.99
2019-05-26T05:13:41.717Z,99.99
2019-05-26T05:14:41.718Z,99.99
2019-05-26T05:15:41.958Z,99.99
2019-05-26T05:16:41.954Z,99.99
2019-05-26T05:17:41.952Z,99.99
2019-05-26T05:18:41.991Z,99.99
2019-05-26T05:19:41.957Z,99.99
2019-05-26T05:20:47.992Z,99.99
2019-05-26T05:21:41.696Z,99.99
2019-05-26T05:22:41.935Z,99.99
2019-05-26T05:23:41.691Z,99.99
2019-05-26T05:24:41.920Z,99.99
2019-05-26T05:25:41.684Z,99.99
2019-05-26T05:26:41.925Z,99.99
2019-05-26T05:27:41.989Z,99.99
2019-05-26T05:28:41.914Z,99.99
2019-05-26T05:29:41.913Z,99.99
2019-05-26T05:30:41.665Z,99.99
2019-05-26T05:31:44.950Z,99.99
2019-05-26T05:32:41.953Z,99.99
2019-05-26T05:33:41.906Z,99.99
2019-05-26T05:34:41.900Z,99.99
2019-05-26T05:35:41.654Z,99.99
2019-05-26T05:36:41.683Z,99.99
2019-05-26T05:37:41.899Z,99.99
2019-05-26T05:38:41.898Z,99.99
2019-05-26T05:39:41.663Z,99.99
2019-05-26T05:40:56.337Z,99.19
2019-05-26T05:41:42.509Z,96.56
2019-05-26T05:42:46.340Z,95.98
2019-05-26T05:43:41.899Z,96.03
2019-05-26T05:44:41.908Z,97.56
2019-05-26T05:45:41.911Z,99.99
2019-05-26T05:46:41.664Z,99.99
2019-05-26T05:47:41.655Z,99.99
2019-05-26T05:48:41.900Z,99.99
2019-05-26T05:49:41.908Z,99.67
2019-05-26T05:50:41.776Z,97.9
2019-05-26T05:51:41.902Z,95.31
2019-05-26T05:52:44.935Z,93.16
2019-05-26T05:53:41.910Z,90.71
2019-05-26T05:54:41.915Z,88.45
2019-05-26T05:55:41.660Z,87.11
2019-05-26T05:56:41.665Z,87.59
2019-05-26T05:57:41.904Z,87.21
2019-05-26T05:58:41.909Z,87.4
2019-05-26T05:59:41.912Z,88.02
2019-05-26T06:00:41.914Z,88.7
2019-05-26T06:01:41.918Z,88.55
2019-05-26T06:02:41.905Z,87.88
2019-05-26T06:03:43.096Z,85.91
2019-05-26T06:04:41.917Z,83.7
2019-05-26T06:05:41.699Z,82.93
2019-05-26T06:06:41.919Z,82.68
2019-05-26T06:07:41.673Z,80.71
2019-05-26T06:08:41.925Z,79.17
2019-05-26T06:09:41.924Z,76.9
2019-05-26T06:10:41.689Z,76.23
2019-05-26T06:11:41.948Z,75.4
2019-05-26T06:12:41.705Z,74.73
2019-05-26T06:13:41.703Z,72.74
2019-05-26T06:14:45.064Z,71.97
2019-05-26T06:15:41.715Z,71.62
2019-05-26T06:16:41.961Z,71.88
2019-05-26T06:17:41.985Z,72.17
2019-05-26T06:18:41.721Z,72.45
2019-05-26T06:19:41.962Z,71.78
2019-05-26T06:20:41.986Z,72.17
2019-05-26T06:21:41.972Z,71.69
2019-05-26T06:22:41.741Z,69.99
2019-05-26T06:23:41.757Z,69.7
2019-05-26T06:24:42.337Z,70.37
2019-05-26T06:25:41.987Z,69.35
2019-05-26T06:26:41.739Z,68.1
2019-05-26T06:27:42.019Z,68.04
2019-05-26T06:28:41.743Z,67.55
2019-05-26T06:29:55.892Z,68.77
2019-05-26T06:30:41.759Z,69.89
2019-05-26T06:31:42.070Z,69.51
2019-05-26T06:32:42.016Z,69.02
2019-05-26T06:33:41.766Z,69.89
2019-05-26T06:34:41.789Z,68.87
2019-05-26T06:35:45.067Z,67.23
2019-05-26T06:36:41.793Z,67.36
2019-05-26T06:37:41.808Z,67.36
2019-05-26T06:38:41.792Z,67.36
2019-05-26T06:39:42.048Z,67.9
2019-05-26T06:40:41.812Z,67.74
2019-05-26T06:41:42.049Z,67.26
2019-05-26T06:42:41.814Z,67.16
2019-05-26T06:43:42.055Z,66.69
2019-05-26T06:44:55.889Z,66.72
2019-05-26T06:45:42.062Z,66.24
2019-05-26T06:46:43.487Z,65.47
2019-05-26T06:47:41.836Z,65.4
2019-05-26T06:48:42.078Z,65.85
2019-05-26T06:49:42.097Z,65.66
2019-05-26T06:50:42.105Z,64.69
2019-05-26T06:51:42.112Z,65.5
2019-05-26T06:52:42.099Z,66.04
2019-05-26T06:53:41.867Z,65.75
2019-05-26T06:54:42.107Z,64.72
2019-05-26T06:55:42.131Z,64.82
2019-05-26T06:56:41.877Z,64.72
2019-05-26T06:57:45.161Z,64.82
2019-05-26T06:58:42.136Z,64.82
2019-05-26T06:59:41.889Z,65.01
2019-05-26T07:00:41.885Z,65.85
2019-05-26T07:01:41.903Z,66.24
2019-05-26T07:02:42.146Z,66.24
2019-05-26T07:03:41.905Z,66.24
2019-05-26T07:04:42.152Z,66.72
2019-05-26T07:05:42.159Z,67.4
2019-05-26T07:06:42.189Z,67.68
2019-05-26T07:07:43.337Z,68.61
2019-05-26T07:08:42.170Z,69.45
2019-05-26T07:09:42.181Z,70.41
2019-05-26T07:10:42.176Z,70.7
2019-05-26T07:12:00.076Z,70.79
2019-05-26T07:12:42.194Z,70.5
2019-05-26T07:13:42.269Z,68.23
2019-05-26T07:14:42.201Z,67.94
2019-05-26T07:15:42.198Z,68.23
2019-05-26T07:16:41.957Z,68.32
2019-05-26T07:17:42.221Z,67.2
2019-05-26T07:18:44.375Z,65.69
2019-05-26T07:19:42.225Z,64.92
2019-05-26T07:20:42.233Z,64.66
2019-05-26T07:21:42.221Z,64.37
2019-05-26T07:22:41.978Z,63.7
2019-05-26T07:23:42.229Z,63.7
2019-05-26T07:24:42.244Z,63.43
2019-05-26T07:25:42.253Z,62.57
2019-05-26T07:26:42.235Z,61.73
2019-05-26T07:27:42.244Z,62.02
2019-05-26T07:28:42.304Z,61.6
2019-05-26T07:29:45.293Z,61.54
2019-05-26T07:30:42.011Z,64.11
2019-05-26T07:31:42.265Z,65.05
2019-05-26T07:32:42.099Z,63.4
2019-05-26T07:33:42.314Z,63.4
2019-05-26T07:34:42.301Z,62.86
2019-05-26T07:35:42.292Z,61.22
2019-05-26T07:36:42.051Z,59.99
2019-05-26T07:37:42.046Z,59.73
2019-05-26T07:38:42.304Z,58.31
2019-05-26T07:39:42.301Z,57.24
2019-05-26T07:40:48.577Z,56.79
2019-05-26T07:41:42.061Z,56.52
2019-05-26T07:42:42.325Z,54.79
2019-05-26T07:43:42.624Z,52.97
2019-05-26T07:44:42.326Z,52.78
2019-05-26T07:45:42.339Z,52.9
2019-05-26T07:46:42.346Z,53.67
2019-05-26T07:47:42.344Z,52.51
2019-05-26T07:48:42.363Z,52.44
2019-05-26T07:49:42.359Z,52.25
2019-05-26T07:50:43.780Z,52.34
2019-05-26T07:51:42.385Z,51.09
2019-05-26T07:52:42.398Z,50.6
2019-05-26T07:53:42.383Z,50.53
2019-05-26T07:54:42.140Z,50.62
2019-05-26T07:55:42.407Z,48.88
2019-05-26T07:56:42.401Z,49.17
2019-05-26T07:57:42.407Z,49.37
2019-05-26T07:58:42.416Z,49.46
2019-05-26T07:59:42.173Z,48.78
2019-05-26T08:00:42.432Z,47.91
2019-05-26T08:01:45.474Z,46.94
2019-05-26T08:02:42.189Z,47.83
2019-05-26T08:03:42.204Z,48.78
2019-05-26T08:04:42.210Z,47.23
2019-05-26T08:05:42.472Z,46.75
2019-05-26T08:06:42.220Z,45.2
2019-05-26T08:07:42.474Z,43.78
2019-05-26T08:08:42.484Z,43.2
2019-05-26T08:09:42.496Z,43.78
2019-05-26T08:10:42.496Z,43.98
2019-05-26T08:11:42.500Z,42.71
2019-05-26T08:12:45.544Z,43.22
2019-05-26T08:13:42.513Z,42.93
2019-05-26T08:14:42.533Z,42.95
2019-05-26T08:15:42.374Z,43.92
2019-05-26T08:16:42.543Z,43.82
2019-05-26T08:17:42.550Z,44.6
2019-05-26T08:18:42.311Z,43.15
2019-05-26T08:19:42.565Z,44.48
2019-05-26T08:20:42.320Z,44.97
2019-05-26T08:21:42.320Z,44.56
2019-05-26T08:22:42.578Z,44.38
2019-05-26T08:23:48.878Z,43.61
2019-05-26T08:24:42.594Z,45.75
2019-05-26T08:25:42.404Z,45.38
2019-05-26T08:26:42.599Z,45.26
2019-05-26T08:27:42.362Z,45.65
2019-05-26T08:28:42.610Z,45.65
2019-05-26T08:29:42.637Z,46.69
2019-05-26T08:30:42.630Z,48.35
2019-05-26T08:31:42.387Z,46.98
2019-05-26T08:32:42.400Z,45.89
2019-05-26T08:33:44.063Z,47.06
2019-05-26T08:34:42.658Z,49.58
2019-05-26T08:35:42.469Z,49.27
2019-05-26T08:36:42.668Z,47.91
2019-05-26T08:37:42.682Z,49.46
2019-05-26T08:38:42.677Z,49.75
2019-05-26T08:39:42.695Z,48.47
2019-05-26T08:40:42.691Z,48.76
2019-05-26T08:41:42.454Z,50.57
2019-05-26T08:42:47.096Z,49.61
2019-05-26T08:43:42.723Z,50.77
2019-05-26T08:44:47.024Z,50.77
2019-05-26T08:45:42.727Z,51.45
2019-05-26T08:46:42.733Z,51.35
2019-05-26T08:47:42.739Z,49.7
2019-05-26T08:48:42.753Z,49.8
2019-05-26T08:49:42.504Z,51.01
2019-05-26T08:50:42.777Z,52.27
2019-05-26T08:51:42.768Z,54.57
2019-05-26T08:52:42.523Z,55.6
2019-05-26T08:53:42.533Z,55.67
2019-05-26T08:54:42.781Z,57.19
2019-05-26T08:55:45.819Z,58.51
2019-05-26T08:56:42.550Z,61.74
2019-05-26T08:57:42.812Z,62.79
2019-05-26T08:58:42.818Z,63.09
2019-05-26T08:59:42.569Z,63.44
2019-05-26T09:00:42.834Z,63.44
2019-05-26T09:01:42.577Z,62.28
2019-05-26T09:02:42.577Z,63.34
2019-05-26T09:03:42.835Z,64.86
2019-05-26T09:04:42.839Z,63.98
2019-05-26T09:05:42.853Z,65.14
2019-05-26T09:06:42.855Z,64.47
2019-05-26T09:07:42.866Z,64.95
2019-05-26T09:08:42.860Z,66.59
2019-05-26T09:09:42.870Z,65.33
2019-05-26T09:10:42.870Z,65.53
2019-05-26T09:11:42.631Z,66.11
2019-05-26T09:12:42.626Z,65.88
2019-05-26T09:13:42.628Z,65.98
2019-05-26T09:14:42.631Z,66.94
2019-05-26T09:15:42.634Z,68.38
2019-05-26T09:16:44.316Z,67.61
2019-05-26T09:17:42.899Z,67.07
2019-05-26T09:18:42.910Z,66.59
2019-05-26T09:19:42.913Z,65.91
2019-05-26T09:20:42.912Z,65.56
2019-05-26T09:21:42.911Z,63.73
2019-05-26T09:22:42.671Z,65.47
2019-05-26T09:23:42.907Z,64.79
2019-05-26T09:24:42.916Z,66.11
2019-05-26T09:25:45.860Z,65.63
2019-05-26T09:26:42.929Z,66.97
2019-05-26T09:27:45.716Z,65.47
2019-05-26T09:28:42.688Z,65.75
2019-05-26T09:29:42.938Z,64.69
2019-05-26T09:30:42.945Z,62.99
2019-05-26T09:31:42.941Z,63.28
2019-05-26T09:32:42.945Z,63.85
2019-05-26T09:33:42.943Z,63.57
2019-05-26T09:34:42.956Z,61.67
2019-05-26T09:35:42.953Z,61.28
2019-05-26T09:36:42.956Z,62.82
2019-05-26T09:37:42.708Z,61.41
2019-05-26T09:38:45.749Z,59.58
2019-05-26T09:39:42.720Z,62.18
2019-05-26T09:40:42.971Z,58.9
2019-05-26T09:41:42.976Z,57.74
2019-05-26T09:42:42.731Z,58.42
2019-05-26T09:43:42.731Z,59.74
2019-05-26T09:44:42.985Z,61.47
2019-05-26T09:45:42.989Z,59.93
2019-05-26T09:46:42.993Z,61.64
2019-05-26T09:47:42.750Z,62.89
2019-05-26T09:48:42.950Z,64.18
2019-05-26T09:49:43.003Z,64.08
2019-05-26T09:50:43.002Z,59.83
2019-05-26T09:51:42.756Z,61.38
2019-05-26T09:52:43.009Z,61.96
2019-05-26T09:53:43.008Z,60.1
2019-05-26T09:54:42.772Z,60.68
2019-05-26T09:55:43.022Z,61.64
2019-05-26T09:56:43.028Z,61.16
2019-05-26T09:57:43.028Z,61.71
2019-05-26T09:58:42.772Z,62.38
2019-05-26T09:59:46.060Z,66.24
2019-05-26T10:00:43.044Z,65.08
2019-05-26T10:01:43.033Z,64.69
2019-05-26T10:02:42.801Z,62.79
2019-05-26T10:03:43.069Z,62.22
2019-05-26T10:04:42.806Z,64.05
2019-05-26T10:05:43.046Z,63.37
2019-05-26T10:06:43.065Z,62.41
2019-05-26T10:07:43.051Z,62.7
2019-05-26T10:08:43.106Z,62.41
2019-05-26T10:09:43.058Z,60.68
2019-05-26T10:10:49.334Z,60.41
2019-05-26T10:11:43.076Z,59.25
2019-05-26T10:12:42.831Z,59.64
2019-05-26T10:13:43.092Z,59.35
2019-05-26T10:14:43.077Z,59.71
2019-05-26T10:15:43.083Z,60.1
2019-05-26T10:16:43.084Z,60.77
2019-05-26T10:17:43.116Z,61.16
2019-05-26T10:18:43.079Z,61.13
2019-05-26T10:19:43.201Z,61.71
2019-05-26T10:20:43.109Z,61.22
2019-05-26T10:21:46.135Z,64.47
2019-05-26T10:22:43.113Z,64.95
2019-05-26T10:23:43.109Z,65.24
2019-05-26T10:24:42.873Z,63.89
2019-05-26T10:25:43.114Z,63.21
2019-05-26T10:26:43.117Z,66.78
2019-05-26T10:27:43.115Z,64.95
2019-05-26T10:28:43.116Z,64.95
2019-05-26T10:29:42.875Z,64.95
2019-05-26T10:30:43.210Z,64.08
2019-05-26T10:31:43.492Z,63.7
2019-05-26T10:32:42.881Z,63.31
2019-05-26T10:33:43.129Z,62.35
2019-05-26T10:34:43.131Z,62.73
2019-05-26T10:35:43.140Z,63.5
2019-05-26T10:36:42.903Z,67.46
2019-05-26T10:37:43.183Z,66.69
2019-05-26T10:38:43.148Z,61.71
2019-05-26T10:39:45.119Z,61.32
2019-05-26T10:40:42.906Z,60.83
2019-05-26T10:41:42.896Z,60.93
2019-05-26T10:42:45.964Z,61.03
2019-05-26T10:43:51.556Z,60.26
2019-05-26T10:44:43.166Z,60.55
2019-05-26T10:45:43.127Z,60.16
2019-05-26T10:46:42.927Z,60.06
2019-05-26T10:47:42.930Z,61.06
2019-05-26T10:48:42.928Z,59.03
2019-05-26T10:49:42.920Z,60.28
2019-05-26T10:50:43.177Z,60.38
2019-05-26T10:51:43.181Z,59.13
2019-05-26T10:52:43.017Z,61.28
2019-05-26T10:53:44.376Z,59.83
2019-05-26T10:54:42.942Z,58.87
2019-05-26T10:55:43.194Z,58.55
2019-05-26T10:56:42.941Z,57.39
2019-05-26T10:57:42.964Z,57.52
2019-05-26T10:58:42.957Z,57.01
2019-05-26T10:59:43.203Z,57.49
2019-05-26T11:00:43.251Z,57.1
2019-05-26T11:01:43.201Z,57.39
2019-05-26T11:02:43.209Z,57.39
2019-05-26T11:03:43.225Z,57.68
2019-05-26T11:04:46.262Z,58.55
2019-05-26T11:05:43.220Z,59.32
2019-05-26T11:06:43.232Z,58.55
2019-05-26T11:07:42.990Z,56.43
2019-05-26T11:08:43.226Z,56.43
2019-05-26T11:09:43.238Z,56.33
2019-05-26T11:10:43.229Z,55.66
2019-05-26T11:11:42.980Z,55.56
2019-05-26T11:12:43.251Z,56.04
2019-05-26T11:13:43.374Z,56.14
2019-05-26T11:14:43.608Z,56.81
2019-05-26T11:15:47.927Z,56.33
2019-05-26T11:16:42.995Z,56.24
2019-05-26T11:17:43.250Z,57.59
2019-05-26T11:18:43.254Z,56.91
2019-05-26T11:19:43.249Z,56.52
2019-05-26T11:20:43.258Z,56.33
2019-05-26T11:21:43.251Z,56.72
2019-05-26T11:22:43.265Z,56.24
2019-05-26T11:23:43.013Z,56.72
2019-05-26T11:24:43.268Z,56.33
2019-05-26T11:25:46.306Z,56.33
2019-05-26T11:26:43.269Z,56.84
2019-05-26T11:27:43.036Z,56.26
2019-05-26T11:28:43.271Z,56.46
2019-05-26T11:29:43.280Z,55.78
2019-05-26T11:30:43.285Z,55.4
2019-05-26T11:31:43.046Z,55.2
2019-05-26T11:32:43.054Z,54.94
2019-05-26T11:33:43.343Z,54.27
2019-05-26T11:34:43.341Z,53.81
2019-05-26T11:35:43.051Z,53.61
2019-05-26T11:36:46.336Z,54.29
2019-05-26T11:37:43.319Z,54
2019-05-26T11:38:43.062Z,56.51
2019-05-26T11:39:43.067Z,57.7
2019-05-26T11:40:43.331Z,54.13
2019-05-26T11:41:43.318Z,53.42
2019-05-26T11:42:47.149Z,52.55
2019-05-26T11:43:43.326Z,53.33
2019-05-26T11:44:43.331Z,53.33
2019-05-26T11:45:43.332Z,54.1
2019-05-26T11:46:43.340Z,53.81
2019-05-26T11:47:49.359Z,54.39
2019-05-26T11:48:43.343Z,54.49
2019-05-26T11:49:43.344Z,54.17
2019-05-26T11:50:43.350Z,54.46
2019-05-26T11:51:43.353Z,54.94
2019-05-26T11:52:43.121Z,54.65
2019-05-26T11:53:43.359Z,54.94
2019-05-26T11:54:43.369Z,54.84
2019-05-26T11:55:43.368Z,53.52
2019-05-26T11:56:43.368Z,53.71
2019-05-26T11:57:44.540Z,53.42
2019-05-26T11:58:43.377Z,53.13
2019-05-26T11:59:46.895Z,52.84
2019-05-26T12:00:43.386Z,53.81
2019-05-26T12:01:43.390Z,53.33
2019-05-26T12:02:43.139Z,52.55
2019-05-26T12:03:43.390Z,54.29
2019-05-26T12:04:43.398Z,53.71
2019-05-26T12:05:43.151Z,53.42
2019-05-26T12:06:43.412Z,53.91
2019-05-26T12:07:43.218Z,53.71
2019-05-26T12:08:46.440Z,54.39
2019-05-26T12:09:43.419Z,54.41
2019-05-26T12:10:43.169Z,52.87
2019-05-26T12:11:43.181Z,52.09
2019-05-26T12:12:43.426Z,51.42
2019-05-26T12:13:43.182Z,51.15
2019-05-26T12:14:43.474Z,51.71
2019-05-26T12:15:43.188Z,51.71
2019-05-26T12:16:46.442Z,51.42
2019-05-26T12:17:43.193Z,52.17
2019-05-26T12:18:43.453Z,51.9
2019-05-26T12:19:46.477Z,51.23
2019-05-26T12:20:43.209Z,51.51
2019-05-26T12:21:43.458Z,54.8
2019-05-26T12:22:43.464Z,53.67
2019-05-26T12:23:43.470Z,52.51
2019-05-26T12:24:43.224Z,50.67
2019-05-26T12:25:43.493Z,51.64
2019-05-26T12:26:43.485Z,52.29
2019-05-26T12:27:43.482Z,52.19
2019-05-26T12:28:43.481Z,51.51
2019-05-26T12:29:43.490Z,51.23
2019-05-26T12:30:43.253Z,50.84
2019-05-26T12:31:43.246Z,51.51
2019-05-26T12:32:43.572Z,50.93
2019-05-26T12:33:43.502Z,50.28
2019-05-26T12:34:43.515Z,50.55
2019-05-26T12:35:43.512Z,50.35
2019-05-26T12:36:43.532Z,50.16
2019-05-26T12:37:43.511Z,51.71
2019-05-26T12:38:43.521Z,55.09
2019-05-26T12:39:43.558Z,53.42
2019-05-26T12:40:44.940Z,53.13
2019-05-26T12:41:43.547Z,53.81
2019-05-26T12:42:43.542Z,53.81
2019-05-26T12:43:43.609Z,53.06
2019-05-26T12:44:52.362Z,51.42
2019-05-26T12:45:43.540Z,51.35
2019-05-26T12:46:43.556Z,50.96
2019-05-26T12:47:43.505Z,51.35
2019-05-26T12:48:43.315Z,52.48
2019-05-26T12:49:43.571Z,52.77
2019-05-26T12:50:43.558Z,53.35
2019-05-26T12:51:46.608Z,52.55
2019-05-26T12:52:43.339Z,55.45
2019-05-26T12:53:43.331Z,55.07
2019-05-26T12:54:43.609Z,54.75